createdAt,value
2022-11-17T00:05:30.779Z,11.12
2022-11-17T00:15:30.916Z,11.10
2022-11-17T00:25:30.836Z,11.07
2022-11-17T00:35:30.939Z,11.05
2022-11-17T00:45:31.035Z,11.05
2022-11-17T00:55:30.969Z,11.05
2022-11-17T01:05:33.165Z,11.03
2022-11-17T01:15:32.933Z,11.02
2022-11-17T01:25:33.002Z,11.02
2022-11-17T01:35:32.920Z,11.00
2022-11-17T01:45:32.986Z,10.98
2022-11-17T01:55:35.973Z,10.95
2022-11-17T02:05:35.961Z,10.93
2022-11-17T02:15:36.004Z,10.91
2022-11-17T02:25:35.989Z,10.90
2022-11-17T02:35:35.975Z,10.91
2022-11-17T02:45:35.997Z,10.92
2022-11-17T02:55:36.017Z,10.92
2022-11-17T03:05:36.051Z,10.91
2022-11-17T03:15:36.030Z,10.91
2022-11-17T03:25:37.069Z,10.91
2022-11-17T03:35:37.156Z,10.92
2022-11-17T03:45:37.070Z,10.93
2022-11-17T03:55:37.083Z,10.89
2022-11-17T04:05:37.080Z,10.79
2022-11-17T04:15:55.369Z,10.69
2022-11-17T04:26:13.439Z,10.56
2022-11-17T04:36:13.138Z,10.51
2022-11-17T04:46:13.118Z,10.52
2022-11-17T04:56:13.295Z,10.47
2022-11-17T05:06:13.762Z,10.41
2022-11-17T05:16:32.752Z,10.42
2022-11-17T05:26:33.236Z,10.59
2022-11-17T05:36:33.233Z,10.75
2022-11-17T05:46:33.259Z,10.82
2022-11-17T05:56:33.252Z,10.87
2022-11-17T06:06:33.240Z,10.90
2022-11-17T06:16:33.267Z,10.93
2022-11-17T06:26:33.288Z,10.95
2022-11-17T06:36:33.275Z,10.97
2022-11-17T06:46:37.704Z,10.99
2022-11-17T06:56:37.333Z,10.99
2022-11-17T07:06:37.339Z,11.00
2022-11-17T07:16:37.309Z,11.03
2022-11-17T07:26:37.361Z,11.10
2022-11-17T07:36:37.390Z,11.23
2022-11-17T07:46:37.454Z,11.38
2022-11-17T07:56:37.421Z,11.50
2022-11-17T08:06:37.378Z,11.61
2022-11-17T08:16:37.413Z,11.63
2022-11-17T08:26:37.471Z,11.58
2022-11-17T08:36:38.013Z,11.53
2022-11-17T08:46:38.455Z,11.57
2022-11-17T08:56:38.493Z,11.74
2022-11-17T09:06:38.488Z,12.08
2022-11-17T09:16:38.470Z,12.58
2022-11-17T09:26:40.486Z,12.88
2022-11-17T09:36:41.726Z,12.94
2022-11-17T09:46:41.640Z,13.10
2022-11-17T09:56:41.555Z,13.35
2022-11-17T10:06:41.525Z,13.39
2022-11-17T10:16:41.763Z,13.22
2022-11-17T10:26:41.616Z,13.10
2022-11-17T10:36:41.594Z,13.22
2022-11-17T10:46:46.297Z,13.44
2022-11-17T10:56:43.633Z,13.63
2022-11-17T11:06:43.617Z,13.81
2022-11-17T11:16:47.836Z,13.75
2022-11-17T11:26:45.699Z,13.67
2022-11-17T11:36:48.777Z,13.73
2022-11-17T11:46:48.904Z,13.87
2022-11-17T11:56:48.925Z,14.15
2022-11-17T12:06:50.645Z,14.46
2022-11-17T12:16:50.744Z,14.61
2022-11-17T12:26:50.881Z,14.61
2022-11-17T12:36:50.800Z,14.51
2022-11-17T12:46:50.900Z,14.40
2022-11-17T12:56:50.887Z,14.47
2022-11-17T13:06:50.811Z,14.62
2022-11-17T13:16:50.858Z,14.59
2022-11-17T13:26:50.892Z,14.55
2022-11-17T13:36:50.852Z,14.47
2022-11-17T13:46:50.858Z,14.40
2022-11-17T13:56:51.238Z,14.35
2022-11-17T14:06:50.921Z,14.34
2022-11-17T14:16:50.993Z,14.39
2022-11-17T14:26:50.965Z,14.38
2022-11-17T14:36:50.894Z,14.22
2022-11-17T14:46:50.922Z,14.00
2022-11-17T14:56:50.956Z,13.80
2022-11-17T15:06:51.194Z,13.61
2022-11-17T15:16:51.040Z,13.49
2022-11-17T15:26:50.985Z,13.44
2022-11-17T15:36:51.062Z,13.40
2022-11-17T15:46:51.014Z,13.37
2022-11-17T15:56:51.776Z,13.34
2022-11-17T16:06:52.177Z,13.31
2022-11-17T16:16:52.045Z,13.25
2022-11-17T16:26:52.110Z,13.16
2022-11-17T16:36:52.117Z,13.13
2022-11-17T16:46:52.109Z,13.10
2022-11-17T16:56:52.171Z,13.08
2022-11-17T17:06:52.159Z,13.05
2022-11-17T17:16:52.261Z,13.02
2022-11-17T17:26:52.244Z,12.84
2022-11-17T17:36:52.279Z,12.48
2022-11-17T17:46:52.178Z,12.11
2022-11-17T17:56:52.873Z,11.85
2022-11-17T18:06:55.155Z,11.64
2022-11-17T18:16:55.398Z,11.40
2022-11-17T18:26:55.314Z,11.20
2022-11-17T18:36:55.526Z,11.05
2022-11-17T18:47:01.239Z,10.88
2022-11-17T18:56:57.449Z,10.81
2022-11-17T19:06:57.348Z,10.83
2022-11-17T19:16:57.298Z,10.81
2022-11-17T19:26:57.330Z,10.71
2022-11-17T19:36:57.355Z,10.58
2022-11-17T19:46:57.769Z,10.50
2022-11-17T19:56:58.390Z,10.47
2022-11-17T20:06:58.505Z,10.47
2022-11-17T20:16:58.333Z,10.51
2022-11-17T20:26:58.460Z,10.58
2022-11-17T20:36:58.372Z,10.65
2022-11-17T20:46:58.790Z,10.69
2022-11-17T20:56:59.470Z,10.67
2022-11-17T21:07:06.623Z,10.58
2022-11-17T21:17:08.401Z,10.42
2022-11-17T21:27:08.477Z,10.27
2022-11-17T21:37:09.151Z,10.27
2022-11-17T21:47:09.659Z,10.38
2022-11-17T21:57:09.686Z,10.42
2022-11-17T22:07:09.543Z,10.39
2022-11-17T22:17:10.174Z,10.39
2022-11-17T22:27:10.519Z,10.32
2022-11-17T22:37:10.495Z,10.15
2022-11-17T22:47:10.559Z,10.07
2022-11-17T22:57:10.536Z,10.19
2022-11-17T23:07:10.597Z,10.40
2022-11-17T23:17:10.538Z,10.60
2022-11-17T23:27:10.902Z,10.78
2022-11-17T23:37:10.708Z,10.90
2022-11-17T23:47:10.570Z,10.99
2022-11-17T23:57:10.561Z,11.04
